sensor_id;sensor_type;location;lat;lon;timestamp;P1;durP1;ratioP1;P2;durP2;ratioP2
9292;SDS011;69930;48.232;12.384;2023-12-20T00:01:07;9.13;;;7.32;;
9292;SDS011;69930;48.232;12.384;2023-12-20T00:03:36;9.57;;;7.80;;
9292;SDS011;69930;48.232;12.384;2023-12-20T00:06:03;13.00;;;10.25;;
9292;SDS011;69930;48.232;12.384;2023-12-20T00:08:30;10.35;;;8.57;;
9292;SDS011;69930;48.232;12.384;2023-12-20T00:10:57;10.40;;;7.97;;
9292;SDS011;69930;48.232;12.384;2023-12-20T00:13:25;8.80;;;7.85;;
9292;SDS011;69930;48.232;12.384;2023-12-20T00:15:52;5.55;;;5.00;;
9292;SDS011;69930;48.232;12.384;2023-12-20T00:18:19;6.03;;;5.43;;
9292;SDS011;69930;48.232;12.384;2023-12-20T00:20:47;5.40;;;4.57;;
9292;SDS011;69930;48.232;12.384;2023-12-20T00:23:14;5.03;;;4.25;;
9292;SDS011;69930;48.232;12.384;2023-12-20T00:25:42;3.90;;;3.60;;
9292;SDS011;69930;48.232;12.384;2023-12-20T00:28:09;3.10;;;2.60;;
9292;SDS011;69930;48.232;12.384;2023-12-20T00:30:36;2.25;;;2.15;;
9292;SDS011;69930;48.232;12.384;2023-12-20T00:33:03;2.50;;;2.30;;
9292;SDS011;69930;48.232;12.384;2023-12-20T00:35:30;2.72;;;2.53;;
9292;SDS011;69930;48.232;12.384;2023-12-20T00:37:59;2.60;;;2.40;;
9292;SDS011;69930;48.232;12.384;2023-12-20T00:40:26;2.60;;;2.40;;
9292;SDS011;69930;48.232;12.384;2023-12-20T00:42:53;2.60;;;2.30;;
9292;SDS011;69930;48.232;12.384;2023-12-20T00:45:20;2.40;;;2.20;;
9292;SDS011;69930;48.232;12.384;2023-12-20T00:47:47;2.45;;;2.25;;
9292;SDS011;69930;48.232;12.384;2023-12-20T00:50:14;5.57;;;3.80;;
9292;SDS011;69930;48.232;12.384;2023-12-20T00:52:42;4.57;;;3.80;;
9292;SDS011;69930;48.232;12.384;2023-12-20T00:55:10;4.75;;;4.22;;
9292;SDS011;69930;48.232;12.384;2023-12-20T00:57:37;5.30;;;4.80;;
9292;SDS011;69930;48.232;12.384;2023-12-20T01:00:05;5.80;;;5.30;;
9292;SDS011;69930;48.232;12.384;2023-12-20T01:02:34;5.80;;;5.20;;
9292;SDS011;69930;48.232;12.384;2023-12-20T01:05:02;5.30;;;4.80;;
9292;SDS011;69930;48.232;12.384;2023-12-20T01:07:29;5.47;;;4.97;;
9292;SDS011;69930;48.232;12.384;2023-12-20T01:09:56;5.18;;;4.68;;
9292;SDS011;69930;48.232;12.384;2023-12-20T01:12:25;5.47;;;4.97;;
9292;SDS011;69930;48.232;12.384;2023-12-20T01:14:52;5.43;;;4.57;;
9292;SDS011;69930;48.232;12.384;2023-12-20T01:17:19;3.70;;;3.40;;
9292;SDS011;69930;48.232;12.384;2023-12-20T01:19:46;4.07;;;3.35;;
9292;SDS011;69930;48.232;12.384;2023-12-20T01:22:13;3.53;;;3.05;;
9292;SDS011;69930;48.232;12.384;2023-12-20T01:24:40;2.80;;;2.60;;
9292;SDS011;69930;48.232;12.384;2023-12-20T01:27:07;4.63;;;2.90;;
9292;SDS011;69930;48.232;12.384;2023-12-20T01:29:36;2.88;;;2.60;;
9292;SDS011;69930;48.232;12.384;2023-12-20T01:32:04;3.22;;;3.00;;
9292;SDS011;69930;48.232;12.384;2023-12-20T01:34:32;3.17;;;2.80;;
9292;SDS011;69930;48.232;12.384;2023-12-20T01:36:59;2.83;;;2.63;;
9292;SDS011;69930;48.232;12.384;2023-12-20T01:39:26;2.83;;;2.63;;
9292;SDS011;69930;48.232;12.384;2023-12-20T01:41:53;3.15;;;2.60;;
9292;SDS011;69930;48.232;12.384;2023-12-20T01:44:21;2.92;;;2.58;;
9292;SDS011;69930;48.232;12.384;2023-12-20T01:46:49;3.08;;;2.72;;
9292;SDS011;69930;48.232;12.384;2023-12-20T01:49:16;2.50;;;2.30;;
9292;SDS011;69930;48.232;12.384;2023-12-20T01:51:44;2.78;;;2.58;;
9292;SDS011;69930;48.232;12.384;2023-12-20T01:54:12;2.90;;;2.60;;
9292;SDS011;69930;48.232;12.384;2023-12-20T01:56:39;2.30;;;2.20;;
9292;SDS011;69930;48.232;12.384;2023-12-20T01:59:07;2.50;;;2.30;;
9292;SDS011;69930;48.232;12.384;2023-12-20T02:01:34;2.80;;;2.60;;
9292;SDS011;69930;48.232;12.384;2023-12-20T02:04:03;2.45;;;2.25;;
9292;SDS011;69930;48.232;12.384;2023-12-20T02:06:31;2.80;;;2.60;;
9292;SDS011;69930;48.232;12.384;2023-12-20T02:09:00;3.30;;;3.00;;
9292;SDS011;69930;48.232;12.384;2023-12-20T02:11:28;2.90;;;2.70;;
9292;SDS011;69930;48.232;12.384;2023-12-20T02:13:55;2.90;;;2.70;;
9292;SDS011;69930;48.232;12.384;2023-12-20T02:16:22;3.00;;;2.67;;
9292;SDS011;69930;48.232;12.384;2023-12-20T02:18:50;3.08;;;2.88;;
9292;SDS011;69930;48.232;12.384;2023-12-20T02:21:19;2.80;;;2.60;;
9292;SDS011;69930;48.232;12.384;2023-12-20T02:23:52;2.78;;;2.58;;
9292;SDS011;69930;48.232;12.384;2023-12-20T02:26:19;3.15;;;2.85;;
9292;SDS011;69930;48.232;12.384;2023-12-20T02:28:46;3.67;;;3.38;;
9292;SDS011;69930;48.232;12.384;2023-12-20T02:31:13;3.25;;;2.95;;
9292;SDS011;69930;48.232;12.384;2023-12-20T02:33:41;3.63;;;3.10;;
9292;SDS011;69930;48.232;12.384;2023-12-20T02:36:08;3.05;;;2.85;;
9292;SDS011;69930;48.232;12.384;2023-12-20T02:38:37;2.67;;;2.47;;
9292;SDS011;69930;48.232;12.384;2023-12-20T02:41:04;3.13;;;2.83;;
9292;SDS011;69930;48.232;12.384;2023-12-20T02:43:32;3.00;;;2.70;;
9292;SDS011;69930;48.232;12.384;2023-12-20T02:45:59;2.92;;;2.72;;
9292;SDS011;69930;48.232;12.384;2023-12-20T02:48:26;2.58;;;2.38;;
9292;SDS011;69930;48.232;12.384;2023-12-20T02:50:53;4.28;;;2.72;;
9292;SDS011;69930;48.232;12.384;2023-12-20T02:53:21;3.55;;;2.30;;
9292;SDS011;69930;48.232;12.384;2023-12-20T02:55:50;2.90;;;2.70;;
9292;SDS011;69930;48.232;12.384;2023-12-20T02:58:17;4.60;;;3.08;;
9292;SDS011;69930;48.232;12.384;2023-12-20T03:00:44;3.35;;;3.13;;
9292;SDS011;69930;48.232;12.384;2023-12-20T03:03:11;3.20;;;3.00;;
9292;SDS011;69930;48.232;12.384;2023-12-20T03:05:38;3.33;;;3.13;;
9292;SDS011;69930;48.232;12.384;2023-12-20T03:08:06;3.38;;;2.92;;
9292;SDS011;69930;48.232;12.384;2023-12-20T03:10:33;3.20;;;2.90;;
9292;SDS011;69930;48.232;12.384;2023-12-20T03:13:02;3.20;;;2.97;;
9292;SDS011;69930;48.232;12.384;2023-12-20T03:15:29;3.50;;;3.20;;
9292;SDS011;69930;48.232;12.384;2023-12-20T03:17:56;3.05;;;2.80;;
9292;SDS011;69930;48.232;12.384;2023-12-20T03:20:24;2.70;;;2.50;;
9292;SDS011;69930;48.232;12.384;2023-12-20T03:22:51;3.65;;;3.10;;
9292;SDS011;69930;48.232;12.384;2023-12-20T03:25:18;3.00;;;2.80;;
9292;SDS011;69930;48.232;12.384;2023-12-20T03:27:46;2.95;;;2.75;;
9292;SDS011;69930;48.232;12.384;2023-12-20T03:30:14;3.05;;;2.85;;
9292;SDS011;69930;48.232;12.384;2023-12-20T03:32:42;3.20;;;3.00;;
9292;SDS011;69930;48.232;12.384;2023-12-20T03:35:09;3.30;;;3.10;;
9292;SDS011;69930;48.232;12.384;2023-12-20T07:35:33;2.15;;;2.05;;
9292;SDS011;69930;48.232;12.384;2023-12-20T07:38:02;2.25;;;2.15;;
9292;SDS011;69930;48.232;12.384;2023-12-20T07:40:30;2.22;;;2.13;;
9292;SDS011;69930;48.232;12.384;2023-12-20T07:43:11;2.65;;;2.45;;
9292;SDS011;69930;48.232;12.384;2023-12-20T07:45:38;2.70;;;2.55;;
9292;SDS011;69930;48.232;12.384;2023-12-20T07:48:19;2.90;;;2.40;;
9292;SDS011;69930;48.232;12.384;2023-12-20T07:51:00;2.60;;;2.30;;
9292;SDS011;69930;48.232;12.384;2023-12-20T07:53:28;2.60;;;2.40;;
9292;SDS011;69930;48.232;12.384;2023-12-20T07:55:55;2.42;;;2.25;;
9292;SDS011;69930;48.232;12.384;2023-12-20T07:58:26;2.97;;;2.67;;
9292;SDS011;69930;48.232;12.384;2023-12-20T08:12:44;2.53;;;2.33;;
9292;SDS011;69930;48.232;12.384;2023-12-20T08:15:13;3.00;;;2.53;;
9292;SDS011;69930;48.232;12.384;2023-12-20T08:17:40;4.15;;;3.85;;
9292;SDS011;69930;48.232;12.384;2023-12-20T08:20:08;10.63;;;9.63;;
9292;SDS011;69930;48.232;12.384;2023-12-20T08:22:36;9.90;;;9.00;;
9292;SDS011;69930;48.232;12.384;2023-12-20T08:25:04;4.97;;;4.45;;
9292;SDS011;69930;48.232;12.384;2023-12-20T08:27:32;3.95;;;3.65;;
9292;SDS011;69930;48.232;12.384;2023-12-20T08:33:06;3.47;;;3.28;;
9292;SDS011;69930;48.232;12.384;2023-12-20T08:35:36;2.83;;;2.63;;
9292;SDS011;69930;48.232;12.384;2023-12-20T08:38:03;2.50;;;2.30;;
9292;SDS011;69930;48.232;12.384;2023-12-20T08:40:37;2.47;;;2.30;;
9292;SDS011;69930;48.232;12.384;2023-12-20T08:43:04;2.20;;;2.10;;
9292;SDS011;69930;48.232;12.384;2023-12-20T08:45:34;2.42;;;2.33;;
9292;SDS011;69930;48.232;12.384;2023-12-20T08:48:01;2.10;;;2.00;;
9292;SDS011;69930;48.232;12.384;2023-12-20T08:50:29;2.20;;;2.00;;
9292;SDS011;69930;48.232;12.384;2023-12-20T08:53:02;2.17;;;2.05;;
9292;SDS011;69930;48.232;12.384;2023-12-20T08:55:30;2.30;;;2.20;;
9292;SDS011;69930;48.232;12.384;2023-12-20T08:57:58;2.70;;;2.50;;
9292;SDS011;69930;48.232;12.384;2023-12-20T09:00:25;1.88;;;1.77;;
9292;SDS011;69930;48.232;12.384;2023-12-20T09:03:14;2.10;;;1.90;;
9292;SDS011;69930;48.232;12.384;2023-12-20T09:05:41;1.60;;;1.50;;
9292;SDS011;69930;48.232;12.384;2023-12-20T09:08:08;2.15;;;2.05;;
9292;SDS011;69930;48.232;12.384;2023-12-20T09:10:37;1.80;;;1.70;;
9292;SDS011;69930;48.232;12.384;2023-12-20T09:13:04;1.75;;;1.48;;
9292;SDS011;69930;48.232;12.384;2023-12-20T09:15:31;1.60;;;1.50;;
9292;SDS011;69930;48.232;12.384;2023-12-20T09:17:59;1.33;;;1.33;;
9292;SDS011;69930;48.232;12.384;2023-12-20T09:20:28;1.60;;;1.50;;
9292;SDS011;69930;48.232;12.384;2023-12-20T09:22:55;1.77;;;1.67;;
9292;SDS011;69930;48.232;12.384;2023-12-20T09:25:22;1.55;;;1.55;;
9292;SDS011;69930;48.232;12.384;2023-12-20T09:27:49;1.80;;;1.70;;
9292;SDS011;69930;48.232;12.384;2023-12-20T09:30:17;1.42;;;1.35;;
9292;SDS011;69930;48.232;12.384;2023-12-20T09:32:44;1.70;;;1.60;;
9292;SDS011;69930;48.232;12.384;2023-12-20T09:35:12;2.40;;;1.50;;
9292;SDS011;69930;48.232;12.384;2023-12-20T09:37:41;1.60;;;1.50;;
9292;SDS011;69930;48.232;12.384;2023-12-20T09:40:11;1.45;;;1.35;;
9292;SDS011;69930;48.232;12.384;2023-12-20T09:42:45;1.50;;;1.40;;
9292;SDS011;69930;48.232;12.384;2023-12-20T09:45:17;1.70;;;1.60;;
9292;SDS011;69930;48.232;12.384;2023-12-20T09:47:48;2.08;;;1.80;;
9292;SDS011;69930;48.232;12.384;2023-12-20T09:50:16;1.98;;;1.52;;
9292;SDS011;69930;48.232;12.384;2023-12-20T09:52:49;1.80;;;1.70;;
9292;SDS011;69930;48.232;12.384;2023-12-20T09:55:18;1.73;;;1.63;;
9292;SDS011;69930;48.232;12.384;2023-12-20T09:57:45;1.50;;;1.40;;
9292;SDS011;69930;48.232;12.384;2023-12-20T10:00:13;1.58;;;1.48;;
9292;SDS011;69930;48.232;12.384;2023-12-20T10:02:45;1.60;;;1.50;;
9292;SDS011;69930;48.232;12.384;2023-12-20T10:05:17;1.60;;;1.50;;
9292;SDS011;69930;48.232;12.384;2023-12-20T10:07:45;1.60;;;1.40;;
9292;SDS011;69930;48.232;12.384;2023-12-20T10:10:14;1.65;;;1.55;;
9292;SDS011;69930;48.232;12.384;2023-12-20T10:12:42;2.10;;;1.30;;
9292;SDS011;69930;48.232;12.384;2023-12-20T10:15:29;1.70;;;1.60;;
9292;SDS011;69930;48.232;12.384;2023-12-20T10:17:56;2.53;;;1.70;;
9292;SDS011;69930;48.232;12.384;2023-12-20T10:20:24;1.50;;;1.40;;
9292;SDS011;69930;48.232;12.384;2023-12-20T10:22:51;1.42;;;1.33;;
9292;SDS011;69930;48.232;12.384;2023-12-20T10:25:21;2.08;;;1.40;;
9292;SDS011;69930;48.232;12.384;2023-12-20T10:27:49;1.83;;;1.58;;
9292;SDS011;69930;48.232;12.384;2023-12-20T10:30:17;1.63;;;1.50;;
9292;SDS011;69930;48.232;12.384;2023-12-20T10:32:44;1.50;;;1.40;;
9292;SDS011;69930;48.232;12.384;2023-12-20T10:35:13;1.60;;;1.50;;
9292;SDS011;69930;48.232;12.384;2023-12-20T10:37:40;1.67;;;1.58;;
9292;SDS011;69930;48.232;12.384;2023-12-20T10:40:07;2.05;;;1.40;;
9292;SDS011;69930;48.232;12.384;2023-12-20T10:42:37;1.27;;;1.27;;
9292;SDS011;69930;48.232;12.384;2023-12-20T10:45:06;1.45;;;1.35;;
9292;SDS011;69930;48.232;12.384;2023-12-20T10:47:34;1.65;;;1.55;;
9292;SDS011;69930;48.232;12.384;2023-12-20T10:50:04;2.55;;;1.60;;
9292;SDS011;69930;48.232;12.384;2023-12-20T10:52:32;1.60;;;1.50;;
9292;SDS011;69930;48.232;12.384;2023-12-20T10:55:02;1.70;;;1.60;;
9292;SDS011;69930;48.232;12.384;2023-12-20T10:57:30;1.83;;;1.73;;
9292;SDS011;69930;48.232;12.384;2023-12-20T11:00:00;2.60;;;1.88;;
9292;SDS011;69930;48.232;12.384;2023-12-20T11:02:30;1.55;;;1.55;;
9292;SDS011;69930;48.232;12.384;2023-12-20T11:04:59;1.85;;;1.65;;
9292;SDS011;69930;48.232;12.384;2023-12-20T11:07:35;2.05;;;1.95;;
9292;SDS011;69930;48.232;12.384;2023-12-20T11:10:10;3.33;;;2.00;;
9292;SDS011;69930;48.232;12.384;2023-12-20T11:12:46;2.30;;;1.60;;
9292;SDS011;69930;48.232;12.384;2023-12-20T11:15:18;1.67;;;1.58;;
9292;SDS011;69930;48.232;12.384;2023-12-20T11:17:47;1.92;;;1.83;;
9292;SDS011;69930;48.232;12.384;2023-12-20T11:20:22;1.73;;;1.63;;
9292;SDS011;69930;48.232;12.384;2023-12-20T11:22:53;1.85;;;1.75;;
9292;SDS011;69930;48.232;12.384;2023-12-20T11:25:21;1.88;;;1.77;;
9292;SDS011;69930;48.232;12.384;2023-12-20T11:30:51;2.15;;;1.90;;
9292;SDS011;69930;48.232;12.384;2023-12-20T11:33:22;2.10;;;1.90;;
9292;SDS011;69930;48.232;12.384;2023-12-20T11:35:50;1.80;;;1.70;;
9292;SDS011;69930;48.232;12.384;2023-12-20T11:38:19;2.13;;;1.90;;
9292;SDS011;69930;48.232;12.384;2023-12-20T11:40:47;2.20;;;2.03;;
9292;SDS011;69930;48.232;12.384;2023-12-20T11:43:29;1.90;;;1.80;;
9292;SDS011;69930;48.232;12.384;2023-12-20T11:46:03;1.80;;;1.70;;
9292;SDS011;69930;48.232;12.384;2023-12-20T11:48:35;1.70;;;1.60;;
9292;SDS011;69930;48.232;12.384;2023-12-20T11:51:08;1.70;;;1.60;;
9292;SDS011;69930;48.232;12.384;2023-12-20T11:53:36;1.67;;;1.58;;
9292;SDS011;69930;48.232;12.384;2023-12-20T11:56:06;1.70;;;1.60;;
9292;SDS011;69930;48.232;12.384;2023-12-20T11:58:42;1.73;;;1.63;;
9292;SDS011;69930;48.232;12.384;2023-12-20T12:01:11;1.75;;;1.65;;
9292;SDS011;69930;48.232;12.384;2023-12-20T12:03:39;3.20;;;1.40;;
9292;SDS011;69930;48.232;12.384;2023-12-20T12:06:08;1.50;;;1.40;;
9292;SDS011;69930;48.232;12.384;2023-12-20T12:08:35;1.38;;;1.30;;
9292;SDS011;69930;48.232;12.384;2023-12-20T12:11:03;1.52;;;1.23;;
9292;SDS011;69930;48.232;12.384;2023-12-20T12:13:31;1.42;;;1.33;;
9292;SDS011;69930;48.232;12.384;2023-12-20T12:15:58;1.40;;;1.30;;
9292;SDS011;69930;48.232;12.384;2023-12-20T12:18:27;1.33;;;1.23;;
9292;SDS011;69930;48.232;12.384;2023-12-20T12:21:01;0.98;;;0.90;;
9292;SDS011;69930;48.232;12.384;2023-12-20T12:23:29;1.00;;;1.00;;
9292;SDS011;69930;48.232;12.384;2023-12-20T12:25:56;0.93;;;0.93;;
9292;SDS011;69930;48.232;12.384;2023-12-20T12:28:25;1.35;;;1.00;;
9292;SDS011;69930;48.232;12.384;2023-12-20T12:30:57;1.75;;;0.90;;
9292;SDS011;69930;48.232;12.384;2023-12-20T12:33:25;1.70;;;1.30;;
9292;SDS011;69930;48.232;12.384;2023-12-20T12:35:54;1.27;;;1.17;;
9292;SDS011;69930;48.232;12.384;2023-12-20T12:41:12;1.40;;;1.40;;
9292;SDS011;69930;48.232;12.384;2023-12-20T12:46:37;2.03;;;1.92;;
9292;SDS011;69930;48.232;12.384;2023-12-20T12:49:04;1.73;;;1.63;;
9292;SDS011;69930;48.232;12.384;2023-12-20T12:51:32;1.50;;;1.40;;
9292;SDS011;69930;48.232;12.384;2023-12-20T12:53:59;2.20;;;2.10;;
9292;SDS011;69930;48.232;12.384;2023-12-20T12:56:27;2.05;;;1.95;;
9292;SDS011;69930;48.232;12.384;2023-12-20T12:58:54;1.85;;;1.75;;
9292;SDS011;69930;48.232;12.384;2023-12-20T13:01:21;1.65;;;1.55;;
9292;SDS011;69930;48.232;12.384;2023-12-20T13:03:48;2.03;;;1.92;;
9292;SDS011;69930;48.232;12.384;2023-12-20T13:06:16;1.88;;;1.75;;
9292;SDS011;69930;48.232;12.384;2023-12-20T13:08:44;1.60;;;1.50;;
9292;SDS011;69930;48.232;12.384;2023-12-20T13:11:11;1.77;;;1.67;;
9292;SDS011;69930;48.232;12.384;2023-12-20T13:13:38;1.83;;;1.73;;
9292;SDS011;69930;48.232;12.384;2023-12-20T13:16:05;2.60;;;1.83;;
9292;SDS011;69930;48.232;12.384;2023-12-20T13:18:33;2.53;;;2.08;;
9292;SDS011;69930;48.232;12.384;2023-12-20T13:21:00;2.38;;;2.10;;
9292;SDS011;69930;48.232;12.384;2023-12-20T13:23:27;2.13;;;1.95;;
9292;SDS011;69930;48.232;12.384;2023-12-20T13:25:55;2.22;;;2.03;;
9292;SDS011;69930;48.232;12.384;2023-12-20T13:28:23;2.05;;;1.85;;
9292;SDS011;69930;48.232;12.384;2023-12-20T13:30:50;2.75;;;2.05;;
9292;SDS011;69930;48.232;12.384;2023-12-20T13:33:17;2.72;;;2.40;;
9292;SDS011;69930;48.232;12.384;2023-12-20T13:35:44;1.80;;;1.70;;
9292;SDS011;69930;48.232;12.384;2023-12-20T13:38:12;2.30;;;2.20;;
9292;SDS011;69930;48.232;12.384;2023-12-20T13:40:40;2.55;;;2.28;;
9292;SDS011;69930;48.232;12.384;2023-12-20T13:43:08;2.72;;;2.42;;
9292;SDS011;69930;48.232;12.384;2023-12-20T13:45:35;3.88;;;2.75;;
9292;SDS011;69930;48.232;12.384;2023-12-20T13:48:03;2.58;;;2.40;;
9292;SDS011;69930;48.232;12.384;2023-12-20T13:50:30;2.53;;;2.33;;
9292;SDS011;69930;48.232;12.384;2023-12-20T13:52:58;2.47;;;2.28;;
9292;SDS011;69930;48.232;12.384;2023-12-20T13:55:26;4.32;;;3.92;;
9292;SDS011;69930;48.232;12.384;2023-12-20T13:57:53;2.42;;;2.22;;
9292;SDS011;69930;48.232;12.384;2023-12-20T14:00:30;3.10;;;2.90;;
9292;SDS011;69930;48.232;12.384;2023-12-20T14:02:57;3.70;;;3.20;;
9292;SDS011;69930;48.232;12.384;2023-12-20T14:05:24;3.00;;;2.70;;
9292;SDS011;69930;48.232;12.384;2023-12-20T14:07:52;2.40;;;2.20;;
9292;SDS011;69930;48.232;12.384;2023-12-20T14:10:22;2.75;;;2.55;;
9292;SDS011;69930;48.232;12.384;2023-12-20T14:21:27;3.25;;;3.05;;
9292;SDS011;69930;48.232;12.384;2023-12-20T14:23:55;2.58;;;2.38;;
9292;SDS011;69930;48.232;12.384;2023-12-20T14:26:35;2.85;;;2.20;;
9292;SDS011;69930;48.232;12.384;2023-12-20T14:29:10;2.33;;;2.20;;
9292;SDS011;69930;48.232;12.384;2023-12-20T14:31:39;2.45;;;2.25;;
9292;SDS011;69930;48.232;12.384;2023-12-20T14:34:15;2.20;;;2.05;;
9292;SDS011;69930;48.232;12.384;2023-12-20T14:36:47;2.53;;;2.10;;
9292;SDS011;69930;48.232;12.384;2023-12-20T15:16:54;6.68;;;2.42;;
9292;SDS011;69930;48.232;12.384;2023-12-20T15:19:22;3.65;;;2.30;;
9292;SDS011;69930;48.232;12.384;2023-12-20T15:21:49;4.97;;;3.00;;
9292;SDS011;69930;48.232;12.384;2023-12-20T15:24:16;5.20;;;3.10;;
9292;SDS011;69930;48.232;12.384;2023-12-20T15:26:45;5.32;;;3.08;;
9292;SDS011;69930;48.232;12.384;2023-12-20T15:32:09;9.30;;;4.32;;
9292;SDS011;69930;48.232;12.384;2023-12-20T15:34:36;4.88;;;2.80;;
9292;SDS011;69930;48.232;12.384;2023-12-20T15:37:03;5.95;;;2.85;;
9292;SDS011;69930;48.232;12.384;2023-12-20T15:42:27;4.63;;;2.08;;
9292;SDS011;69930;48.232;12.384;2023-12-20T15:47:55;4.07;;;2.13;;
9292;SDS011;69930;48.232;12.384;2023-12-20T15:50:23;3.63;;;1.80;;
9292;SDS011;69930;48.232;12.384;2023-12-20T15:52:51;4.68;;;2.63;;
9292;SDS011;69930;48.232;12.384;2023-12-20T15:55:18;3.78;;;2.47;;
9292;SDS011;69930;48.232;12.384;2023-12-20T16:00:41;4.90;;;2.80;;
9292;SDS011;69930;48.232;12.384;2023-12-20T16:20:45;4.05;;;2.25;;
9292;SDS011;69930;48.232;12.384;2023-12-20T16:29:05;4.60;;;1.95;;
9292;SDS011;69930;48.232;12.384;2023-12-20T17:14:37;3.80;;;2.33;;
9292;SDS011;69930;48.232;12.384;2023-12-20T17:17:04;3.95;;;2.20;;
9292;SDS011;69930;48.232;12.384;2023-12-20T17:19:33;3.42;;;1.90;;
9292;SDS011;69930;48.232;12.384;2023-12-20T17:22:01;3.50;;;1.98;;
9292;SDS011;69930;48.232;12.384;2023-12-20T17:24:29;3.33;;;2.13;;
9292;SDS011;69930;48.232;12.384;2023-12-20T17:44:47;2.47;;;2.17;;
9292;SDS011;69930;48.232;12.384;2023-12-20T18:15:58;2.20;;;1.65;;
9292;SDS011;69930;48.232;12.384;2023-12-20T18:18:25;3.38;;;1.42;;
9292;SDS011;69930;48.232;12.384;2023-12-20T18:20:52;4.22;;;1.73;;
9292;SDS011;69930;48.232;12.384;2023-12-20T18:23:20;1.88;;;1.40;;
9292;SDS011;69930;48.232;12.384;2023-12-20T18:25:47;2.10;;;1.50;;
9292;SDS011;69930;48.232;12.384;2023-12-20T18:28:19;2.97;;;1.45;;
9292;SDS011;69930;48.232;12.384;2023-12-20T18:30:48;2.20;;;1.40;;
9292;SDS011;69930;48.232;12.384;2023-12-20T18:33:15;3.55;;;1.65;;
9292;SDS011;69930;48.232;12.384;2023-12-20T18:35:42;2.90;;;1.50;;
9292;SDS011;69930;48.232;12.384;2023-12-20T18:38:10;3.20;;;1.60;;
9292;SDS011;69930;48.232;12.384;2023-12-20T18:40:38;2.92;;;1.20;;
9292;SDS011;69930;48.232;12.384;2023-12-20T18:43:12;2.55;;;1.50;;
9292;SDS011;69930;48.232;12.384;2023-12-20T18:45:39;1.63;;;1.27;;
9292;SDS011;69930;48.232;12.384;2023-12-20T18:48:08;2.63;;;1.50;;
9292;SDS011;69930;48.232;12.384;2023-12-20T18:53:33;2.28;;;1.10;;
9292;SDS011;69930;48.232;12.384;2023-12-20T18:58:53;3.25;;;1.17;;
9292;SDS011;69930;48.232;12.384;2023-12-20T19:01:21;1.95;;;1.20;;
9292;SDS011;69930;48.232;12.384;2023-12-20T19:06:46;2.58;;;1.23;;
9292;SDS011;69930;48.232;12.384;2023-12-20T19:42:29;2.17;;;1.00;;
9292;SDS011;69930;48.232;12.384;2023-12-20T19:47:55;1.95;;;1.02;;
9292;SDS011;69930;48.232;12.384;2023-12-20T19:50:22;2.55;;;1.02;;
9292;SDS011;69930;48.232;12.384;2023-12-20T19:53:14;2.75;;;1.10;;
9292;SDS011;69930;48.232;12.384;2023-12-20T19:55:42;3.40;;;1.00;;
9292;SDS011;69930;48.232;12.384;2023-12-20T19:58:27;2.53;;;1.13;;
9292;SDS011;69930;48.232;12.384;2023-12-20T20:00:58;1.60;;;1.17;;
9292;SDS011;69930;48.232;12.384;2023-12-20T20:06:14;2.47;;;1.10;;
9292;SDS011;69930;48.232;12.384;2023-12-20T20:08:42;1.10;;;1.00;;
9292;SDS011;69930;48.232;12.384;2023-12-20T20:11:09;1.77;;;1.00;;
9292;SDS011;69930;48.232;12.384;2023-12-20T20:13:39;2.60;;;1.20;;
9292;SDS011;69930;48.232;12.384;2023-12-20T20:18:55;1.83;;;0.90;;
9292;SDS011;69930;48.232;12.384;2023-12-20T20:21:22;1.95;;;1.17;;
9292;SDS011;69930;48.232;12.384;2023-12-20T20:26:48;2.15;;;1.20;;
9292;SDS011;69930;48.232;12.384;2023-12-20T20:29:17;1.55;;;1.10;;
9292;SDS011;69930;48.232;12.384;2023-12-20T20:37:15;2.60;;;1.10;;
9292;SDS011;69930;48.232;12.384;2023-12-20T20:39:42;2.03;;;0.90;;
9292;SDS011;69930;48.232;12.384;2023-12-20T20:45:01;2.40;;;1.10;;
9292;SDS011;69930;48.232;12.384;2023-12-20T20:53:20;2.45;;;1.30;;
9292;SDS011;69930;48.232;12.384;2023-12-20T21:04:50;1.58;;;1.10;;
9292;SDS011;69930;48.232;12.384;2023-12-20T21:07:18;1.52;;;1.15;;
9292;SDS011;69930;48.232;12.384;2023-12-20T21:09:45;1.80;;;1.38;;
9292;SDS011;69930;48.232;12.384;2023-12-20T21:12:13;1.98;;;1.30;;
9292;SDS011;69930;48.232;12.384;2023-12-20T21:14:42;1.42;;;1.33;;
9292;SDS011;69930;48.232;12.384;2023-12-20T21:17:09;2.17;;;1.30;;
9292;SDS011;69930;48.232;12.384;2023-12-20T21:19:37;2.20;;;1.40;;
9292;SDS011;69930;48.232;12.384;2023-12-20T21:22:07;2.70;;;1.60;;
9292;SDS011;69930;48.232;12.384;2023-12-20T21:39:15;3.70;;;1.50;;
9292;SDS011;69930;48.232;12.384;2023-12-20T21:53:28;2.90;;;1.48;;
9292;SDS011;69930;48.232;12.384;2023-12-20T21:55:57;1.65;;;1.40;;
9292;SDS011;69930;48.232;12.384;2023-12-20T21:58:24;3.03;;;1.60;;
9292;SDS011;69930;48.232;12.384;2023-12-20T22:00:51;1.27;;;1.17;;
9292;SDS011;69930;48.232;12.384;2023-12-20T22:03:18;1.98;;;1.35;;
9292;SDS011;69930;48.232;12.384;2023-12-20T22:05:45;3.22;;;1.60;;
9292;SDS011;69930;48.232;12.384;2023-12-20T22:08:13;2.72;;;1.20;;
9292;SDS011;69930;48.232;12.384;2023-12-20T22:10:41;1.40;;;1.30;;
9292;SDS011;69930;48.232;12.384;2023-12-20T22:13:09;3.03;;;1.20;;
9292;SDS011;69930;48.232;12.384;2023-12-20T22:15:36;2.25;;;1.40;;
9292;SDS011;69930;48.232;12.384;2023-12-20T22:18:04;1.25;;;1.15;;
9292;SDS011;69930;48.232;12.384;2023-12-20T22:20:31;1.98;;;1.00;;
9292;SDS011;69930;48.232;12.384;2023-12-20T22:22:59;2.05;;;1.25;;
9292;SDS011;69930;48.232;12.384;2023-12-20T22:25:27;2.15;;;1.00;;
9292;SDS011;69930;48.232;12.384;2023-12-20T22:27:54;1.17;;;1.00;;
9292;SDS011;69930;48.232;12.384;2023-12-20T22:30:23;1.92;;;0.93;;
9292;SDS011;69930;48.232;12.384;2023-12-20T22:32:50;2.17;;;0.98;;
9292;SDS011;69930;48.232;12.384;2023-12-20T22:35:17;2.30;;;1.00;;
9292;SDS011;69930;48.232;12.384;2023-12-20T22:37:45;1.63;;;1.08;;
9292;SDS011;69930;48.232;12.384;2023-12-20T22:40:12;0.90;;;0.90;;
9292;SDS011;69930;48.232;12.384;2023-12-20T22:42:39;2.53;;;0.90;;
9292;SDS011;69930;48.232;12.384;2023-12-20T22:47:57;1.60;;;1.00;;
9292;SDS011;69930;48.232;12.384;2023-12-20T22:50:25;1.80;;;0.90;;
9292;SDS011;69930;48.232;12.384;2023-12-20T22:52:52;2.05;;;0.90;;
9292;SDS011;69930;48.232;12.384;2023-12-20T22:55:19;1.85;;;1.08;;
9292;SDS011;69930;48.232;12.384;2023-12-20T22:57:46;2.05;;;1.02;;
9292;SDS011;69930;48.232;12.384;2023-12-20T23:00:13;1.70;;;1.10;;
9292;SDS011;69930;48.232;12.384;2023-12-20T23:02:46;2.35;;;1.17;;
9292;SDS011;69930;48.232;12.384;2023-12-20T23:05:15;2.13;;;1.10;;
9292;SDS011;69930;48.232;12.384;2023-12-20T23:07:42;1.75;;;0.90;;
9292;SDS011;69930;48.232;12.384;2023-12-20T23:16:08;1.20;;;0.80;;
9292;SDS011;69930;48.232;12.384;2023-12-20T23:18:35;1.63;;;0.88;;
9292;SDS011;69930;48.232;12.384;2023-12-20T23:21:04;2.63;;;1.00;;
9292;SDS011;69930;48.232;12.384;2023-12-20T23:23:31;2.38;;;0.90;;
9292;SDS011;69930;48.232;12.384;2023-12-20T23:28:54;1.33;;;0.98;;
9292;SDS011;69930;48.232;12.384;2023-12-20T23:31:24;2.40;;;0.73;;
9292;SDS011;69930;48.232;12.384;2023-12-20T23:33:51;0.85;;;0.70;;
9292;SDS011;69930;48.232;12.384;2023-12-20T23:36:20;1.85;;;0.80;;
9292;SDS011;69930;48.232;12.384;2023-12-20T23:38:47;1.80;;;0.93;;
9292;SDS011;69930;48.232;12.384;2023-12-20T23:41:14;1.50;;;0.80;;
9292;SDS011;69930;48.232;12.384;2023-12-20T23:43:41;1.58;;;0.80;;
9292;SDS011;69930;48.232;12.384;2023-12-20T23:46:09;2.17;;;0.90;;
9292;SDS011;69930;48.232;12.384;2023-12-20T23:48:36;1.55;;;0.70;;
9292;SDS011;69930;48.232;12.384;2023-12-20T23:51:03;0.95;;;0.70;;
9292;SDS011;69930;48.232;12.384;2023-12-20T23:53:32;1.48;;;0.75;;
9292;SDS011;69930;48.232;12.384;2023-12-20T23:55:59;1.25;;;0.70;;
9292;SDS011;69930;48.232;12.384;2023-12-20T23:58:27;0.90;;;0.65;;
